Time;durP1;ratioP1;P1;durP2;ratioP2;P2;SDS_P1;SDS_P2;PMS_P1;PMS_P2;Temp;Humidity;BMP_temperature;BMP_pressure;BME280_temperature;BME280_humidity;BME280_pressure;Samples;Min_cycle;Max_cycle;Signal;HPM_P1;HPM_P2
2021/09/17 00:00:17;;;;;;;10.80;7.70;;;;;;;15.62;86.32;100571.44;5082913;28;20048;-52
2021/09/17 00:02:43;;;;;;;8.70;7.65;;;;;;;15.62;86.96;100575.94;5069904;28;20202;-54
2021/09/17 00:05:10;;;;;;;11.25;7.68;;;;;;;15.58;86.88;100577.09;5072071;28;20075;-52
2021/09/17 00:07:37;;;;;;;9.10;8.20;;;;;;;15.53;85.09;100569.34;5073177;28;20097;-52
2021/09/17 00:10:04;;;;;;;12.25;9.05;;;;;;;15.51;86.48;100573.06;5076948;28;20054;-52
2021/09/17 00:12:30;;;;;;;10.55;9.30;;;;;;;15.54;87.38;100571.06;5077037;28;20588;-52
2021/09/17 00:14:57;;;;;;;12.30;9.40;;;;;;;15.49;86.54;100567.84;5075397;28;20134;-51
2021/09/17 00:17:24;;;;;;;14.98;9.32;;;;;;;15.51;87.71;100567.75;5082549;28;20107;-54
2021/09/17 00:19:50;;;;;;;10.63;9.10;;;;;;;15.51;88.11;100555.25;5075912;28;20575;-52
2021/09/17 00:22:17;;;;;;;11.13;9.23;;;;;;;15.55;88.00;100559.47;5079489;28;20055;-52
2021/09/17 00:24:43;;;;;;;13.75;10.30;;;;;;;15.55;87.13;100563.94;5077247;28;20040;-52
2021/09/17 00:27:10;;;;;;;10.77;9.68;;;;;;;15.50;86.75;100563.34;5073720;28;20129;-54
2021/09/17 00:29:36;;;;;;;11.05;9.15;;;;;;;15.44;86.78;100568.13;5076026;28;20036;-54
2021/09/17 00:32:03;;;;;;;11.52;10.38;;;;;;;15.43;88.00;100561.06;5079944;28;20044;-52
2021/09/17 00:34:30;;;;;;;12.20;10.50;;;;;;;15.47;87.65;100561.72;5076187;28;20436;-53
2021/09/17 00:36:56;;;;;;;13.07;10.57;;;;;;;15.48;88.15;100558.13;5076414;28;20506;-52
2021/09/17 00:39:23;;;;;;;13.48;11.00;;;;;;;15.46;87.69;100562.69;5078376;28;20494;-52
2021/09/17 00:41:49;;;;;;;11.90;10.70;;;;;;;15.38;87.08;100557.00;5083235;28;20044;-53
2021/09/17 00:44:25;;;;;;;12.48;10.77;;;;;;;15.35;87.34;100560.72;5078113;28;20044;-54
2021/09/17 00:46:52;;;;;;;13.00;11.60;;;;;;;15.29;88.46;100555.75;5076375;28;20044;-51
2021/09/17 00:49:20;;;;;;;13.10;11.10;;;;;;;15.38;90.65;100549.00;5077032;28;20047;-52
2021/09/17 00:51:48;;;;;;;12.55;10.70;;;;;;;15.41;89.28;100556.81;5070909;28;20071;-54
2021/09/17 00:54:15;;;;;;;12.10;9.27;;;;;;;15.36;87.83;100553.56;5080619;28;20051;-53
2021/09/17 00:56:43;;;;;;;13.82;10.95;;;;;;;15.29;88.35;100545.09;5075922;28;20569;-51
2021/09/17 00:59:10;;;;;;;13.25;10.40;;;;;;;15.32;89.40;100546.72;5076265;28;20051;-54
2021/09/17 01:01:38;;;;;;;12.18;10.85;;;;;;;15.39;90.39;100548.03;5080014;28;20831;-52
2021/09/17 01:04:07;;;;;;;14.70;10.68;;;;;;;15.48;91.83;100543.91;5075043;28;20045;-51
2021/09/17 01:06:35;;;;;;;14.60;11.32;;;;;;;15.51;91.11;100539.25;5080052;28;20520;-52
2021/09/17 01:09:03;;;;;;;12.88;9.63;;;;;;;15.43;88.74;100538.88;5080039;28;20416;-52
2021/09/17 01:11:30;;;;;;;12.65;9.50;;;;;;;15.29;87.75;100541.56;5076695;28;20047;-51
2021/09/17 01:13:58;;;;;;;12.57;7.75;;;;;;;15.13;87.66;100544.34;5078644;28;20046;-53
2021/09/17 01:16:24;;;;;;;9.52;8.27;;;;;;;15.08;88.25;100543.81;5078542;28;20054;-52
2021/09/17 01:18:52;;;;;;;11.65;9.00;;;;;;;15.08;91.66;100539.34;5076138;28;20046;-53
2021/09/17 01:21:22;;;;;;;12.57;9.98;;;;;;;15.19;91.58;100551.13;5079351;28;20055;-54
2021/09/17 01:23:49;;;;;;;;;;;;;;;15.21;90.17;100547.41;5082624;28;20120;-52
2021/09/17 01:26:16;;;;;;;16.45;12.00;;;;;;;15.28;91.04;100545.19;5075304;28;20383;-53
2021/09/17 01:28:43;;;;;;;15.13;11.23;;;;;;;15.35;90.14;100535.84;5075262;28;20040;-56
2021/09/17 01:31:09;;;;;;;14.85;12.02;;;;;;;15.33;88.99;100533.28;5077109;28;20063;-53
2021/09/17 01:33:36;;;;;;;18.38;11.40;;;;;;;15.38;90.57;100524.97;5076411;28;20040;-52
2021/09/17 01:36:09;;;;;;;12.48;10.95;;;;;;;15.46;89.87;100522.66;5079576;28;20048;-53
2021/09/17 01:38:38;;;;;;;11.60;10.43;;;;;;;15.50;90.74;100529.53;5077498;28;20052;-52
2021/09/17 01:41:05;;;;;;;12.00;10.52;;;;;;;15.61;90.75;100516.34;5079972;28;20059;-53
2021/09/17 01:43:32;;;;;;;8.75;7.85;;;;;;;15.70;89.95;100520.25;5075596;28;20070;-53
2021/09/17 01:45:58;;;;;;;11.43;9.70;;;;;;;15.62;88.66;100523.41;5086938;28;20040;-52
2021/09/17 01:48:26;;;;;;;11.43;9.27;;;;;;;15.59;89.57;100528.94;5085957;28;20044;-53
2021/09/17 01:50:53;;;;;;;12.43;9.52;;;;;;;15.48;88.58;100514.56;5086031;28;20043;-53
2021/09/17 01:53:20;;;;;;;11.98;8.93;;;;;;;15.34;88.10;100520.78;5084612;28;20047;-52
2021/09/17 01:55:46;;;;;;;11.85;8.88;;;;;;;15.21;88.62;100519.88;5084228;28;20052;-54
2021/09/17 01:58:13;;;;;;;10.15;8.80;;;;;;;14.97;89.11;100501.78;5086360;28;20044;-54
2021/09/17 02:00:39;;;;;;;9.63;7.60;;;;;;;14.97;89.45;100517.81;5076690;28;20043;-53
2021/09/17 02:03:06;;;;;;;8.95;8.05;;;;;;;14.91;90.71;100520.00;5077613;28;20093;-53
2021/09/17 02:05:32;;;;;;;11.68;8.50;;;;;;;14.84;91.36;100514.19;5078785;28;20058;-52
2021/09/17 02:07:59;;;;;;;10.00;8.55;;;;;;;14.78;91.96;100511.06;5083642;28;20050;-52
2021/09/17 02:10:25;;;;;;;12.82;9.57;;;;;;;14.77;93.21;100517.34;5080282;28;20044;-53
2021/09/17 02:12:52;;;;;;;10.77;9.25;;;;;;;14.75;93.02;100517.44;5081611;28;20052;-52
2021/09/17 02:15:18;;;;;;;10.05;9.02;;;;;;;14.78;94.36;100519.06;5079568;28;20040;-52
2021/09/17 02:17:45;;;;;;;13.07;9.93;;;;;;;14.74;93.22;100521.91;5077610;28;20790;-53
2021/09/17 02:20:12;;;;;;;10.75;9.48;;;;;;;14.71;93.24;100523.91;5080418;28;20043;-52
2021/09/17 02:22:38;;;;;;;13.75;9.13;;;;;;;14.69;93.86;100523.16;5084701;28;20600;-51
2021/09/17 02:25:06;;;;;;;9.88;8.75;;;;;;;14.70;94.19;100520.38;5077858;28;20788;-52
2021/09/17 02:27:32;;;;;;;9.75;8.85;;;;;;;14.63;94.14;100503.09;5073575;28;20437;-52
2021/09/17 02:29:59;;;;;;;13.43;10.48;;;;;;;14.88;96.31;100520.19;5082986;28;20048;-53
2021/09/17 02:32:25;;;;;;;10.82;9.68;;;;;;;14.96;97.22;100517.88;5080051;28;20508;-52
2021/09/17 02:34:52;;;;;;;9.57;8.35;;;;;;;14.99;94.47;100523.03;5083735;28;20405;-52
2021/09/17 02:37:18;;;;;;;9.93;8.57;;;;;;;14.92;92.77;100525.25;5076811;28;20044;-53
2021/09/17 02:39:45;;;;;;;13.43;8.65;;;;;;;14.88;92.68;100520.19;5078213;28;20062;-54
2021/09/17 02:42:12;;;;;;;10.43;8.32;;;;;;;14.85;93.15;100509.72;5085628;28;20051;-52
2021/09/17 02:44:38;;;;;;;11.45;8.98;;;;;;;14.88;95.04;100512.19;5083372;28;20109;-51
2021/09/17 02:47:05;;;;;;;13.95;10.65;;;;;;;14.92;95.24;100511.06;5081280;28;20049;-52
2021/09/17 02:49:33;;;;;;;13.70;10.20;;;;;;;15.03;96.52;100508.56;5059561;28;20051;-51
2021/09/17 02:52:00;;;;;;;14.25;11.07;;;;;;;15.11;94.75;100508.09;5078274;28;20044;-52
2021/09/17 02:54:27;;;;;;;11.75;10.18;;;;;;;15.10;93.38;100499.22;5078064;28;20040;-52
2021/09/17 02:56:53;;;;;;;12.25;9.90;;;;;;;15.18;94.62;100501.38;5078868;28;20059;-50
2021/09/17 02:59:20;;;;;;;13.05;10.25;;;;;;;15.19;94.09;100492.44;5076114;28;20039;-52
2021/09/17 03:01:46;;;;;;;13.25;10.80;;;;;;;15.26;93.16;100496.44;5077106;28;20048;-53
2021/09/17 03:04:13;;;;;;;12.95;10.05;;;;;;;15.24;90.66;100493.00;5078213;28;20048;-52
2021/09/17 03:06:40;;;;;;;14.45;10.07;;;;;;;15.25;92.25;100492.06;5079154;28;20565;-53
2021/09/17 03:09:06;;;;;;;11.88;10.43;;;;;;;15.24;92.55;100490.34;5079326;28;20044;-52
2021/09/17 03:11:33;;;;;;;11.70;9.45;;;;;;;15.29;93.32;100490.88;5078515;28;20052;-54
2021/09/17 03:13:59;;;;;;;10.90;9.80;;;;;;;15.26;91.31;100491.97;5084564;28;20047;-53
2021/09/17 03:16:25;;;;;;;14.02;9.68;;;;;;;15.19;90.22;100492.44;5081081;28;20040;-52
2021/09/17 03:18:52;;;;;;;12.70;10.50;;;;;;;15.20;91.91;100483.47;5083543;28;20048;-51
2021/09/17 03:21:18;;;;;;;11.27;9.57;;;;;;;15.19;92.62;100487.09;5072412;28;20041;-53
2021/09/17 03:23:45;;;;;;;11.82;9.18;;;;;;;15.06;91.14;100477.22;5078721;28;20105;-54
2021/09/17 03:26:11;;;;;;;9.82;8.85;;;;;;;14.92;90.50;100489.72;5081319;28;20055;-53
2021/09/17 03:28:38;;;;;;;9.60;8.60;;;;;;;14.76;90.94;100481.00;5080351;28;20044;-53
2021/09/17 03:31:04;;;;;;;11.50;8.48;;;;;;;14.59;91.95;100484.69;5075327;28;20098;-53
2021/09/17 03:33:31;;;;;;;11.38;9.57;;;;;;;14.62;96.03;100479.19;5076421;28;20054;-54
2021/09/17 03:35:57;;;;;;;14.10;10.43;;;;;;;14.64;95.76;100477.25;5082228;28;20146;-51
2021/09/17 03:38:24;;;;;;;17.20;11.73;;;;;;;14.53;93.88;100475.28;5076705;28;20044;-51
2021/09/17 03:40:50;;;;;;;20.13;11.15;;;;;;;14.44;93.49;100475.00;5076340;28;20134;-52
2021/09/17 03:43:17;;;;;;;23.10;13.10;;;;;;;14.35;92.86;100479.03;5080162;28;20080;-52
2021/09/17 03:45:43;;;;;;;23.30;12.70;;;;;;;14.24;93.15;100481.50;5080224;28;20044;-52
2021/09/17 03:48:11;;;;;;;20.25;12.52;;;;;;;14.12;93.66;100477.78;5082652;28;20048;-52
2021/09/17 03:50:38;;;;;;;23.73;14.52;;;;;;;13.98;94.50;100475.09;5081295;28;20044;-53
2021/09/17 03:53:06;;;;;;;24.52;14.63;;;;;;;13.89;95.07;100475.63;5075852;28;20591;-53
2021/09/17 03:55:34;;;;;;;25.02;14.68;;;;;;;13.87;96.10;100488.16;5080984;28;20071;-52
2021/09/17 03:58:01;;;;;;;25.80;14.77;;;;;;;13.83;96.56;100481.31;5077292;28;20062;-51
2021/09/17 04:00:28;;;;;;;23.52;15.27;;;;;;;13.80;98.59;100473.50;5078119;28;20048;-54
2021/09/17 04:02:56;;;;;;;25.55;14.60;;;;;;;13.95;100.00;100481.44;5077968;28;20055;-54
2021/09/17 04:05:23;;;;;;;24.08;15.23;;;;;;;13.81;99.83;100459.25;5080571;28;20075;-52
2021/09/17 04:07:49;;;;;;;23.23;14.35;;;;;;;13.83;98.37;100484.00;5077291;28;20036;-54
2021/09/17 04:10:18;;;;;;;24.33;13.95;;;;;;;13.77;98.13;100484.34;5077557;28;20485;-51
2021/09/17 04:12:45;;;;;;;22.00;14.25;;;;;;;13.72;97.96;100479.28;5075720;28;20044;-51
2021/09/17 04:15:12;;;;;;;22.00;13.43;;;;;;;13.70;98.41;100486.47;5080278;28;20158;-52
2021/09/17 04:17:39;;;;;;;21.90;13.57;;;;;;;13.74;99.97;100481.84;5075247;28;20035;-51
2021/09/17 04:20:07;;;;;;;20.00;13.35;;;;;;;13.73;99.28;100482.78;5080743;28;20527;-51
2021/09/17 04:22:34;;;;;;;22.98;13.90;;;;;;;13.73;99.13;100480.13;5077500;28;20498;-51
2021/09/17 04:25:01;;;;;;;18.08;13.32;;;;;;;13.69;99.50;100480.31;5080807;28;20046;-52
2021/09/17 04:27:27;;;;;;;24.80;14.70;;;;;;;13.87;100.00;100475.72;5083293;28;20052;-52
2021/09/17 04:29:54;;;;;;;22.83;14.15;;;;;;;13.97;100.00;100478.69;5084649;28;20062;-52
2021/09/17 04:32:21;;;;;;;21.20;13.68;;;;;;;14.01;100.00;100478.41;5081324;28;20055;-50
2021/09/17 04:34:47;;;;;;;22.08;14.43;;;;;;;13.97;100.00;100476.03;5081652;28;20054;-52
2021/09/17 04:37:14;;;;;;;22.45;14.27;;;;;;;13.91;99.11;100473.72;5080881;28;20048;-52
2021/09/17 04:39:40;;;;;;;21.95;13.85;;;;;;;13.85;98.58;100484.75;5082695;28;20040;-53
2021/09/17 04:42:07;;;;;;;23.48;14.07;;;;;;;13.80;98.92;100477.03;5084897;28;20669;-54
2021/09/17 04:44:33;;;;;;;22.23;13.43;;;;;;;13.77;98.64;100481.66;5078681;28;20051;-52
2021/09/17 04:47:00;;;;;;;23.35;13.73;;;;;;;13.71;98.13;100482.88;5081677;28;20048;-52
2021/09/17 04:49:26;;;;;;;21.80;13.40;;;;;;;13.65;98.25;100481.44;5074981;28;20052;-53
2021/09/17 04:51:52;;;;;;;21.25;13.82;;;;;;;13.62;99.79;100484.28;5081414;28;20052;-52
2021/09/17 04:54:19;;;;;;;25.25;14.65;;;;;;;13.54;99.33;100486.50;5078296;28;20052;-51
2021/09/17 04:56:45;;;;;;;27.23;14.05;;;;;;;13.30;98.92;100471.97;5082492;28;20044;-54
2021/09/17 04:59:12;;;;;;;22.60;13.27;;;;;;;13.28;99.14;100484.50;5079612;28;20052;-51
2021/09/17 05:01:39;;;;;;;18.70;12.80;;;;;;;13.21;99.33;100489.31;5080090;28;20048;-54
2021/09/17 05:04:05;;;;;;;17.05;12.30;;;;;;;13.19;100.00;100487.69;5082614;28;20052;-53
2021/09/17 05:06:32;;;;;;;23.77;13.05;;;;;;;13.17;99.75;100492.22;5076372;28;20151;-51
2021/09/17 05:09:02;;;;;;;18.52;11.80;;;;;;;13.10;99.82;100486.34;5075087;28;20044;-53
2021/09/17 05:11:28;;;;;;;18.45;12.60;;;;;;;13.06;99.87;100484.84;5076607;28;20051;-53
2021/09/17 05:13:55;;;;;;;18.45;12.10;;;;;;;13.09;99.71;100489.94;5081507;28;20059;-51
2021/09/17 05:16:21;;;;;;;18.10;12.05;;;;;;;13.09;100.00;100497.94;5078027;28;20055;-53
2021/09/17 05:18:48;;;;;;;18.23;12.43;;;;;;;13.15;100.00;100494.13;5077962;28;20520;-54
2021/09/17 05:21:15;;;;;;;16.35;10.57;;;;;;;13.22;100.00;100498.16;5077980;28;20844;-52
2021/09/17 05:23:41;;;;;;;14.57;10.90;;;;;;;13.09;100.00;100483.78;5077992;28;20044;-53
2021/09/17 05:26:08;;;;;;;19.30;11.52;;;;;;;13.27;100.00;100498.75;5082438;28;20066;-51
2021/09/17 05:28:34;;;;;;;16.98;10.75;;;;;;;13.25;100.00;100492.63;5081003;28;20048;-52
2021/09/17 05:31:01;;;;;;;13.88;10.02;;;;;;;13.23;99.20;100495.38;5079864;28;20047;-52
2021/09/17 05:33:28;;;;;;;14.20;10.52;;;;;;;13.22;100.00;100500.81;5074002;28;20048;-52
2021/09/17 05:35:55;;;;;;;17.10;11.50;;;;;;;13.22;100.00;100500.81;5083467;28;20051;-51
2021/09/17 05:38:21;;;;;;;15.10;11.02;;;;;;;13.39;100.00;100495.38;5078070;28;20044;-53
2021/09/17 05:40:48;;;;;;;13.57;10.93;;;;;;;13.56;100.00;100492.59;5082213;28;20036;-54
2021/09/17 05:43:14;;;;;;;17.63;11.10;;;;;;;13.57;96.87;100501.44;5079427;28;20098;-52
2021/09/17 05:45:42;;;;;;;15.05;10.80;;;;;;;13.51;96.53;100508.00;5076010;28;20040;-52
2021/09/17 05:48:09;;;;;;;13.38;10.55;;;;;;;13.46;96.64;100506.53;5079261;28;20054;-51
2021/09/17 05:50:35;;;;;;;15.82;10.70;;;;;;;13.46;96.43;100502.06;5076512;28;20052;-53
2021/09/17 05:53:02;;;;;;;13.88;11.20;;;;;;;13.40;96.46;100505.06;5077956;28;20056;-51
2021/09/17 05:55:29;;;;;;;14.13;11.77;;;;;;;13.42;96.90;100502.31;5077977;28;20048;-52
2021/09/17 05:57:56;;;;;;;14.25;11.95;;;;;;;13.43;97.14;100509.38;5078101;28;20062;-52
2021/09/17 06:00:23;;;;;;;13.98;11.57;;;;;;;13.46;97.86;100509.19;5074325;28;20670;-52
2021/09/17 06:02:50;;;;;;;15.68;12.38;;;;;;;13.49;97.95;100515.22;5072027;28;20056;-52
2021/09/17 06:05:17;;;;;;;14.93;12.73;;;;;;;13.43;98.10;100493.41;5073676;28;20052;-52
2021/09/17 06:07:44;;;;;;;16.20;13.57;;;;;;;13.60;98.13;100517.25;5071757;28;20047;-51
2021/09/17 06:10:13;;;;;;;16.45;12.63;;;;;;;13.62;97.70;100515.34;5077746;28;20040;-52
2021/09/17 06:12:40;;;;;;;17.77;13.55;;;;;;;13.68;98.53;100512.34;5072062;28;20055;-52
2021/09/17 06:15:07;;;;;;;19.05;13.30;;;;;;;13.74;98.06;100517.31;5073267;28;20509;-52
2021/09/17 06:17:34;;;;;;;16.42;13.38;;;;;;;13.78;98.19;100521.50;5075876;28;20036;-52
2021/09/17 06:20:02;;;;;;;16.17;13.85;;;;;;;13.85;98.44;100516.69;5075215;28;20048;-53
2021/09/17 06:22:28;;;;;;;17.60;13.25;;;;;;;13.89;97.73;100511.09;5075530;28;20054;-52
2021/09/17 06:24:55;;;;;;;17.58;13.68;;;;;;;13.96;97.00;100517.78;5081415;28;20051;-53
2021/09/17 06:27:21;;;;;;;16.10;13.95;;;;;;;13.99;96.76;100516.75;5072454;28;20048;-52
2021/09/17 06:29:48;;;;;;;15.43;13.50;;;;;;;14.00;96.73;100515.78;5079385;28;20368;-52
2021/09/17 06:32:14;;;;;;;16.88;13.18;;;;;;;14.06;96.78;100520.75;5078341;28;20044;-52
2021/09/17 06:34:41;;;;;;;17.98;14.18;;;;;;;14.09;97.26;100523.22;5077232;28;20044;-52
2021/09/17 06:37:09;;;;;;;19.60;14.52;;;;;;;14.15;96.63;100514.03;5074708;28;20424;-51
2021/09/17 06:39:36;;;;;;;17.38;13.77;;;;;;;14.18;96.65;100514.69;5080751;28;20052;-51
2021/09/17 06:42:02;;;;;;;15.95;13.63;;;;;;;14.21;97.27;100511.84;5079592;28;20048;-53
2021/09/17 06:44:29;;;;;;;16.05;14.35;;;;;;;14.29;96.83;100508.72;5073490;28;20940;-52
2021/09/17 06:46:56;;;;;;;16.90;13.85;;;;;;;14.35;96.23;100513.66;5074633;28;20044;-52
2021/09/17 06:49:23;;;;;;;16.60;14.07;;;;;;;14.39;95.89;100516.06;5072850;28;20045;-53
2021/09/17 06:51:49;;;;;;;16.30;14.57;;;;;;;14.47;95.87;100518.31;5072294;28;20425;-54
2021/09/17 06:54:16;;;;;;;18.23;13.85;;;;;;;14.54;95.61;100516.09;5068136;28;20473;-54
2021/09/17 06:56:42;;;;;;;17.15;14.82;;;;;;;14.71;97.02;100514.09;5079868;28;20047;-54
2021/09/17 06:59:09;;;;;;;16.60;13.98;;;;;;;14.86;96.66;100511.44;5081294;28;20412;-52
2021/09/17 07:01:36;;;;;;;18.05;14.13;;;;;;;14.94;95.47;100506.50;5078754;28;20043;-52
2021/09/17 07:04:03;;;;;;;17.15;13.40;;;;;;;15.05;93.86;100518.19;5068194;28;20055;-54
2021/09/17 07:06:33;;;;;;;17.05;13.40;;;;;;;15.14;93.20;100510.53;5070087;28;20052;-52
2021/09/17 07:09:00;;;;;;;17.33;14.25;;;;;;;15.27;93.40;100514.97;5070200;28;20044;-52
2021/09/17 07:11:27;;;;;;;15.55;13.02;;;;;;;15.29;90.13;100505.06;5070199;28;20052;-53
2021/09/17 07:13:54;;;;;;;16.73;14.15;;;;;;;15.30;90.07;100505.94;5070571;28;20128;-52
2021/09/17 07:16:21;;;;;;;18.48;14.20;;;;;;;15.31;89.06;100502.31;5070276;28;20052;-52
2021/09/17 07:18:47;;;;;;;15.77;13.63;;;;;;;15.31;89.74;100508.50;5072102;28;20123;-53
2021/09/17 07:21:14;;;;;;;16.00;14.15;;;;;;;15.40;90.50;100509.72;5076776;28;20075;-53
2021/09/17 07:23:40;;;;;;;18.88;15.38;;;;;;;15.47;88.56;100507.50;5074726;28;20048;-53
2021/09/17 07:26:07;;;;;;;19.05;14.63;;;;;;;15.53;88.63;100507.97;5075020;28;20044;-54
2021/09/17 07:28:34;;;;;;;20.58;15.57;;;;;;;15.68;89.75;100504.31;5074696;28;20055;-52
2021/09/17 07:31:01;;;;;;;20.08;14.52;;;;;;;15.73;88.45;100499.53;5073370;28;20044;-52
2021/09/17 07:33:28;;;;;;;17.20;13.85;;;;;;;15.82;87.31;100502.53;5075168;28;20764;-56
2021/09/17 07:35:54;;;;;;;21.30;14.18;;;;;;;15.87;86.36;100500.44;5071296;28;20370;-53
2021/09/17 07:38:21;;;;;;;15.82;13.90;;;;;;;15.93;85.77;100498.19;5067633;28;20492;-52
2021/09/17 07:40:47;;;;;;;16.45;13.65;;;;;;;16.00;85.35;100498.63;5071655;28;20051;-53
2021/09/17 07:43:14;;;;;;;17.85;13.77;;;;;;;16.08;85.41;100498.97;5072915;28;20047;-53
2021/09/17 07:45:40;;;;;;;16.80;13.82;;;;;;;16.22;85.11;100504.22;5067494;28;20055;-53
2021/09/17 07:48:07;;;;;;;18.35;14.10;;;;;;;16.30;84.15;100496.53;5071356;28;20045;-53
2021/09/17 07:50:35;;;;;;;19.70;14.43;;;;;;;16.38;83.04;100502.19;5067989;28;20055;-51
2021/09/17 07:53:01;;;;;;;20.88;15.15;;;;;;;16.49;81.82;100498.78;5073998;28;20497;-51
2021/09/17 07:55:33;;;;;;;18.88;14.98;;;;;;;16.46;81.59;100480.28;5070135;28;20488;-51
2021/09/17 07:58:03;;;;;;;17.10;13.18;;;;;;;16.71;81.89;100503.50;5066569;28;20665;-53
2021/09/17 08:00:30;;;;;;;18.47;14.53;;;;;;;16.78;79.91;100502.97;5073741;28;20043;-53
2021/09/17 08:02:57;;;;;;;14.52;12.98;;;;;;;16.84;80.59;100504.38;5066718;28;20139;-53
2021/09/17 08:05:24;;;;;;;19.20;14.73;;;;;;;16.87;78.61;100506.81;5066281;28;20052;-53
2021/09/17 08:07:53;;;;;;;17.75;15.00;;;;;;;16.91;79.11;100504.78;5071154;28;20048;-53
2021/09/17 08:10:19;;;;;;;17.13;15.35;;;;;;;17.05;77.68;100507.31;5073166;28;20413;-51
2021/09/17 08:12:46;;;;;;;16.00;14.05;;;;;;;17.13;79.52;100505.81;5077180;28;20051;-52
2021/09/17 08:15:13;;;;;;;21.35;15.75;;;;;;;17.21;77.20;100513.25;5081421;28;20074;-52
2021/09/17 08:17:40;;;;;;;20.88;15.68;;;;;;;17.27;76.58;100503.94;5078565;28;20130;-52
2021/09/17 08:20:07;;;;;;;21.48;17.55;;;;;;;17.31;75.20;100498.25;5082281;28;20865;-52
2021/09/17 08:22:38;;;;;;;20.38;16.38;;;;;;;17.41;75.54;100503.78;5076591;28;20052;-51
2021/09/17 08:25:07;;;;;;;20.95;15.68;;;;;;;17.50;74.85;100509.31;5081356;28;20045;-52
2021/09/17 08:27:34;;;;;;;20.45;16.02;;;;;;;17.58;74.35;100507.91;5075547;28;20049;-53
2021/09/17 08:30:01;;;;;;;21.13;16.45;;;;;;;17.61;74.04;100503.19;5079680;28;20109;-53
2021/09/17 08:32:27;;;;;;;20.27;16.25;;;;;;;17.79;74.39;100501.81;5077173;28;20055;-53
2021/09/17 08:34:54;;;;;;;19.90;16.00;;;;;;;17.94;74.07;100507.84;5078246;28;20048;-52
2021/09/17 08:37:20;;;;;;;22.13;17.38;;;;;;;18.04;72.09;100505.31;5072212;28;20048;-53
2021/09/17 08:39:47;;;;;;;18.42;15.57;;;;;;;18.07;72.69;100510.47;5072082;28;20059;-52
2021/09/17 08:42:13;;;;;;;23.58;17.27;;;;;;;18.09;72.11;100511.19;5077464;28;20040;-52
2021/09/17 08:44:40;;;;;;;22.20;17.20;;;;;;;17.97;73.54;100512.97;5079262;28;20036;-54
2021/09/17 08:47:07;;;;;;;19.50;17.40;;;;;;;18.06;73.42;100512.28;5075646;28;20067;-52
2021/09/17 08:49:34;;;;;;;25.23;18.15;;;;;;;18.11;72.27;100515.44;5078860;28;20075;-52
2021/09/17 08:52:01;;;;;;;20.10;15.98;;;;;;;18.15;72.13;100510.72;5079018;28;20048;-53
2021/09/17 08:54:28;;;;;;;18.42;15.77;;;;;;;18.28;71.78;100519.50;5080342;28;20492;-51
2021/09/17 08:56:56;;;;;;;19.55;15.75;;;;;;;18.28;72.08;100514.16;5079997;28;20052;-52
2021/09/17 08:59:22;;;;;;;22.95;16.77;;;;;;;18.39;70.78;100506.16;5076381;28;20391;-51
2021/09/17 09:01:49;;;;;;;18.48;14.30;;;;;;;18.49;70.92;100509.81;5081297;28;20059;-52
2021/09/17 09:04:27;;;;;;;21.23;13.93;;;;;;;18.64;71.68;100510.47;5083380;28;20067;-53
2021/09/17 09:07:03;;;;;;;19.90;15.15;;;;;;;18.87;70.10;100508.66;5072037;28;20058;-53
2021/09/17 09:09:29;;;;;;;22.38;15.73;;;;;;;19.00;70.42;100509.41;5077210;28;20063;-53
2021/09/17 09:11:56;;;;;;;18.90;15.07;;;;;;;19.11;69.82;100503.16;5084141;28;20052;-51
2021/09/17 09:14:23;;;;;;;21.60;15.00;;;;;;;19.14;69.31;100497.53;5080389;28;20052;-52
2021/09/17 09:16:52;;;;;;;21.50;16.08;;;;;;;19.27;67.89;100496.41;5076939;28;20040;-52
2021/09/17 09:19:28;;;;;;;17.55;14.55;;;;;;;19.40;68.14;100493.56;5071794;28;20064;-52
2021/09/17 09:22:03;;;;;;;18.35;14.20;;;;;;;19.66;66.59;100486.09;5077953;28;20142;-51
2021/09/17 09:24:39;;;;;;;17.42;13.85;;;;;;;19.58;66.20;100465.22;5078714;28;20048;-53
2021/09/17 09:27:20;;;;;;;18.67;14.02;;;;;;;19.60;66.13;100465.09;5080958;28;20055;-52
2021/09/17 09:29:52;;;;;;;18.25;13.93;;;;;;;19.83;66.18;100482.81;5072381;28;20055;-54
2021/09/17 09:32:30;;;;;;;14.77;11.98;;;;;;;20.01;64.68;100485.81;5070699;28;20052;-52
2021/09/17 09:35:00;;;;;;;15.38;12.88;;;;;;;20.11;64.64;100481.38;5076395;28;20131;-52
2021/09/17 09:37:30;;;;;;;13.95;11.52;;;;;;;20.20;64.43;100479.72;5078116;28;20143;-53
2021/09/17 09:40:02;;;;;;;16.15;10.15;;;;;;;20.39;64.61;100479.88;5075432;28;20069;-52
2021/09/17 09:42:42;;;;;;;13.13;10.55;;;;;;;20.53;62.82;100476.84;5070611;28;20540;-52
2021/09/17 09:45:10;;;;;;;12.07;9.87;;;;;;;20.70;63.61;100477.19;5076373;28;20708;-54
2021/09/17 09:47:39;;;;;;;16.63;11.98;;;;;;;20.87;62.01;100468.50;5074729;28;20580;-52
2021/09/17 09:50:09;;;;;;;15.27;11.23;;;;;;;20.94;61.75;100473.19;5077810;28;20043;-53
2021/09/17 09:52:36;;;;;;;13.43;11.47;;;;;;;20.97;60.60;100467.53;5076130;28;20048;-52
2021/09/17 09:55:05;;;;;;;14.27;10.93;;;;;;;20.99;61.22;100472.78;5078654;28;20084;-52
2021/09/17 09:57:32;;;;;;;14.68;11.43;;;;;;;21.03;60.08;100471.53;5075390;28;20608;-52
2021/09/17 10:00:03;;;;;;;14.88;11.38;;;;;;;20.89;61.68;100469.22;5076266;28;20515;-52
2021/09/17 10:02:31;;;;;;;18.38;11.63;;;;;;;20.89;61.64;100472.75;5074459;28;20048;-54
2021/09/17 10:04:59;;;;;;;13.77;10.68;;;;;;;21.13;61.55;100472.38;5073566;28;20048;-52
2021/09/17 10:07:29;;;;;;;18.13;11.00;;;;;;;21.46;60.22;100465.81;5076083;28;20036;-54
2021/09/17 10:09:57;;;;;;;16.55;11.18;;;;;;;21.71;57.94;100469.84;5073521;28;20044;-51
2021/09/17 10:12:27;;;;;;;14.25;10.10;;;;;;;21.58;58.06;100464.69;5076988;28;20063;-52
2021/09/17 10:14:56;;;;;;;15.95;11.43;;;;;;;21.58;57.09;100461.16;5072605;28;20116;-52
2021/09/17 10:17:38;;;;;;;14.75;10.18;;;;;;;21.53;57.78;100466.97;5072517;28;20052;-51
2021/09/17 10:20:08;;;;;;;15.23;11.25;;;;;;;21.63;57.46;100462.44;5078894;28;20047;-53
2021/09/17 10:22:40;;;;;;;11.13;8.52;;;;;;;21.89;57.87;100461.88;5074431;28;20056;-53
2021/09/17 10:25:07;;;;;;;12.82;9.68;;;;;;;22.28;56.95;100462.72;5075135;28;20052;-52
2021/09/17 10:27:34;;;;;;;14.13;9.95;;;;;;;22.59;54.33;100456.09;5072291;28;20043;-55
2021/09/17 10:30:06;;;;;;;17.23;10.98;;;;;;;22.78;53.26;100448.94;5071805;28;20172;-55
2021/09/17 10:32:43;;;;;;;14.80;9.70;;;;;;;22.75;52.46;100456.31;5075889;28;20643;-52
2021/09/17 10:35:43;;;;;;;17.08;11.20;;;;;;;22.53;53.64;100462.06;5077339;28;20045;-55
2021/09/17 10:38:16;;;;;;;12.50;9.38;;;;;;;22.39;54.32;100459.81;5071909;28;20047;-53
2021/09/17 10:41:02;;;;;;;13.07;9.90;;;;;;;22.28;54.92;100462.72;5075979;28;20052;-53
2021/09/17 10:43:43;;;;;;;14.93;9.98;;;;;;;22.20;54.71;100457.16;5079606;28;20050;-54
2021/09/17 10:46:21;;;;;;;14.23;10.60;;;;;;;21.97;54.01;100456.63;5078897;28;20071;-54
2021/09/17 10:48:57;;;;;;;13.82;9.95;;;;;;;21.60;54.70;100453.78;5082546;28;20505;-54
2021/09/17 10:51:35;;;;;;;11.98;9.52;;;;;;;21.34;55.16;100451.66;5075838;28;21791;-51
2021/09/17 10:54:19;;;;;;;12.60;9.57;;;;;;;21.17;56.60;100451.44;5078496;28;20040;-54
2021/09/17 10:56:49;;;;;;;12.02;9.30;;;;;;;21.13;57.51;100442.78;5077725;28;20467;-53
2021/09/17 10:59:21;;;;;;;12.07;8.93;;;;;;;21.12;57.70;100449.16;5079129;28;20044;-52
2021/09/17 11:01:53;;;;;;;14.00;9.48;;;;;;;21.02;56.88;100443.75;5074236;28;20308;-52
2021/09/17 11:04:25;;;;;;;11.30;8.38;;;;;;;21.01;56.19;100441.19;5082430;28;20071;-52
2021/09/17 11:06:53;;;;;;;11.60;8.50;;;;;;;21.08;56.39;100439.66;5078451;28;20051;-54
2021/09/17 11:09:49;;;;;;;12.63;8.15;;;;;;;21.29;55.93;100443.13;5082123;28;20058;-55
2021/09/17 11:12:19;;;;;;;12.73;9.30;;;;;;;21.29;56.47;100448.50;5078176;28;20055;-52
2021/09/17 11:15:09;;;;;;;10.13;8.82;;;;;;;21.03;58.51;100444.59;5075802;28;20044;-54